createdAt,value
2018-06-20T00:02:46.766Z,18.67
2018-06-20T00:08:53.759Z,18.57
2018-06-20T00:14:59.586Z,17.20
2018-06-20T00:21:05.478Z,17.33
2018-06-20T00:27:11.200Z,17.23
2018-06-20T00:33:16.908Z,19.30
2018-06-20T00:39:23.028Z,15.87
2018-06-20T00:45:28.793Z,18.80
2018-06-20T00:51:34.518Z,17.00
2018-06-20T00:57:40.184Z,17.13
2018-06-20T01:03:46.097Z,16.83
2018-06-20T01:09:52.023Z,18.00
2018-06-20T01:15:57.925Z,18.87
2018-06-20T01:22:03.654Z,18.80
2018-06-20T01:28:09.546Z,19.37
2018-06-20T01:34:15.283Z,18.70
2018-06-20T01:40:21.156Z,18.10
2018-06-20T01:46:27.044Z,19.90
2018-06-20T01:52:32.733Z,20.53
2018-06-20T01:58:38.424Z,20.70
2018-06-20T02:04:44.463Z,24.00
2018-06-20T02:10:50.615Z,22.00
2018-06-20T02:16:56.413Z,24.47
2018-06-20T02:23:02.079Z,23.60
2018-06-20T02:29:07.735Z,25.20
2018-06-20T02:35:13.760Z,23.80
2018-06-20T02:41:20.340Z,23.73
2018-06-20T02:47:31.573Z,22.67
2018-06-20T02:53:37.215Z,20.57
2018-06-20T02:59:43.009Z,20.60
2018-06-20T03:05:48.746Z,17.63
2018-06-20T03:11:55.184Z,16.70
2018-06-20T03:18:00.868Z,16.77
2018-06-20T03:24:06.932Z,16.33
2018-06-20T03:30:12.815Z,16.80
2018-06-20T03:36:18.455Z,15.33
2018-06-20T03:42:25.083Z,14.80
2018-06-20T03:48:30.733Z,14.33
2018-06-20T03:54:36.651Z,13.53
2018-06-20T04:00:42.414Z,15.40
2018-06-20T04:06:48.033Z,14.00
2018-06-20T04:12:54.858Z,16.77
2018-06-20T04:19:00.606Z,16.17
2018-06-20T04:25:06.346Z,18.90
2018-06-20T04:31:12.134Z,17.77
2018-06-20T04:37:18.153Z,16.03
2018-06-20T04:43:24.756Z,15.20
2018-06-20T04:49:30.820Z,13.73
2018-06-20T04:55:37.044Z,16.10
2018-06-20T05:01:42.450Z,14.80
2018-06-20T05:07:47.956Z,14.17
2018-06-20T05:13:53.847Z,14.00
2018-06-20T05:19:59.639Z,13.63
2018-06-20T05:26:05.451Z,13.73
2018-06-20T05:32:11.133Z,14.50
2018-06-20T05:38:17.272Z,13.80
2018-06-20T05:44:23.986Z,14.87
2018-06-20T05:50:30.339Z,12.47
2018-06-20T05:56:36.280Z,13.03
2018-06-20T06:02:42.030Z,12.73
2018-06-20T06:08:47.771Z,13.17
2018-06-20T06:14:53.748Z,13.13
2018-06-20T06:20:59.426Z,13.50
2018-06-20T06:27:05.178Z,13.30
2018-06-20T06:33:10.955Z,13.60
2018-06-20T06:39:16.639Z,13.03
2018-06-20T06:45:23.323Z,13.83
2018-06-20T06:51:29.083Z,14.13
2018-06-20T06:57:34.707Z,14.07
2018-06-20T07:03:40.325Z,15.07
2018-06-20T07:09:46.509Z,13.63
2018-06-20T07:15:53.768Z,16.37
2018-06-20T07:21:59.411Z,16.13
2018-06-20T07:28:05.184Z,16.77
2018-06-20T07:34:10.971Z,16.70
2018-06-20T07:40:16.604Z,17.30
2018-06-20T07:46:22.860Z,20.77
2018-06-20T07:52:29.279Z,18.10
2018-06-20T07:58:40.147Z,19.13
2018-06-20T08:04:51.198Z,18.83
2018-06-20T08:11:02.136Z,18.57
2018-06-20T08:17:13.261Z,17.77
2018-06-20T08:23:19.677Z,18.70
2018-06-20T08:29:25.855Z,16.07
2018-06-20T08:35:34.482Z,17.33
2018-06-20T08:41:40.127Z,17.03
2018-06-20T08:47:45.787Z,15.43
2018-06-20T08:53:52.337Z,13.87
2018-06-20T08:59:57.990Z,13.73
2018-06-20T09:06:08.853Z,13.23
2018-06-20T09:12:20.609Z,11.93
2018-06-20T09:18:31.968Z,10.03
2018-06-20T09:24:37.616Z,12.10
2018-06-20T09:30:43.273Z,12.23
2018-06-20T09:36:48.964Z,13.30
2018-06-20T09:42:55.280Z,10.77
2018-06-20T09:49:00.948Z,10.30
2018-06-20T09:55:06.612Z,9.10
2018-06-20T10:02:19.303Z,9.93
2018-06-20T10:08:30.590Z,7.60
2018-06-20T10:14:36.675Z,4.50
2018-06-20T10:20:42.615Z,5.20
2018-06-20T10:26:48.327Z,5.30
2018-06-20T10:32:54.562Z,5.40
2018-06-20T10:39:00.248Z,6.03
2018-06-20T10:45:11.207Z,6.23
2018-06-20T10:51:16.973Z,6.83
2018-06-20T10:57:27.764Z,5.30
2018-06-20T11:03:38.619Z,6.40
2018-06-20T11:09:49.575Z,6.40
2018-06-20T11:15:55.393Z,5.23
2018-06-20T11:22:01.099Z,6.63
2018-06-20T11:28:14.829Z,5.10
2018-06-20T11:34:20.612Z,4.73
2018-06-20T11:40:26.308Z,5.60
2018-06-20T11:46:37.289Z,5.60
2018-06-20T11:52:48.317Z,5.73
2018-06-20T11:59:00.139Z,5.83
2018-06-20T12:05:11.303Z,5.67
2018-06-20T12:11:22.237Z,4.80
2018-06-20T12:17:33.337Z,5.23
2018-06-20T12:23:44.287Z,5.30
2018-06-20T12:29:55.185Z,5.53
2018-06-20T12:36:06.087Z,4.83
2018-06-20T12:42:17.205Z,5.50
2018-06-20T12:48:23.096Z,5.03
2018-06-20T12:54:28.956Z,5.90
2018-06-20T13:00:34.762Z,5.90
2018-06-20T13:06:40.432Z,5.20
2018-06-20T13:12:46.105Z,4.57
2018-06-20T13:18:59.784Z,5.83
2018-06-20T13:25:05.773Z,6.67
2018-06-20T13:31:16.597Z,6.77
2018-06-20T13:37:27.683Z,5.90
2018-06-20T13:43:38.439Z,6.37
2018-06-20T13:49:44.776Z,6.77
2018-06-20T13:55:50.646Z,5.57
2018-06-20T14:01:56.927Z,5.37
2018-06-20T14:08:02.668Z,5.73
2018-06-20T14:14:08.783Z,5.73
2018-06-20T14:20:19.862Z,4.70
2018-06-20T14:26:34.806Z,5.00
2018-06-20T14:32:45.678Z,5.17
2018-06-20T14:38:57.163Z,4.00
2018-06-20T14:45:07.937Z,4.40
2018-06-20T14:51:14.217Z,3.33
2018-06-20T14:57:21.282Z,3.43
2018-06-20T15:03:27.159Z,3.20
2018-06-20T15:09:33.011Z,3.57
2018-06-20T15:15:38.651Z,4.03
2018-06-20T15:21:44.255Z,3.20
2018-06-20T15:27:55.301Z,3.63
2018-06-20T15:34:06.263Z,2.80
2018-06-20T15:40:12.785Z,2.70
2018-06-20T15:46:18.548Z,2.60
2018-06-20T15:52:24.975Z,3.03
2018-06-20T15:58:30.806Z,2.70
2018-06-20T16:04:36.537Z,2.77
2018-06-20T16:10:42.726Z,2.63
2018-06-20T16:16:48.560Z,2.50
2018-06-20T16:23:00.147Z,2.90
2018-06-20T16:29:10.959Z,2.40
2018-06-20T16:35:16.596Z,2.60
2018-06-20T16:41:24.184Z,2.50
2018-06-20T16:47:29.954Z,3.10
2018-06-20T16:53:35.619Z,2.57
2018-06-20T16:59:41.915Z,2.23
2018-06-20T17:05:47.683Z,2.40
2018-06-20T17:11:59.773Z,2.10
2018-06-20T17:18:11.157Z,2.40
2018-06-20T17:24:21.893Z,2.60
2018-06-20T17:30:28.076Z,3.10
2018-06-20T17:36:33.834Z,2.50
2018-06-20T17:42:40.302Z,2.53
2018-06-20T17:48:46.076Z,2.43
2018-06-20T17:54:53.430Z,2.57
2018-06-20T18:01:04.117Z,2.43
2018-06-20T18:07:15.041Z,2.13
2018-06-20T18:13:24.824Z,2.63
2018-06-20T18:19:30.535Z,3.30
2018-06-20T18:25:36.208Z,2.77
2018-06-20T18:31:41.832Z,1.90
2018-06-20T18:37:47.881Z,2.30
2018-06-20T18:43:55.209Z,2.20
2018-06-20T18:50:00.823Z,2.33
2018-06-20T18:56:06.877Z,2.20
2018-06-20T19:02:17.718Z,2.33
2018-06-20T19:08:28.787Z,2.37
2018-06-20T19:14:34.582Z,2.27
2018-06-20T19:20:40.228Z,2.67
2018-06-20T19:26:45.889Z,2.60
2018-06-20T19:32:51.639Z,2.37
2018-06-20T19:38:57.555Z,2.40
2018-06-20T19:45:03.612Z,2.30
2018-06-20T19:51:09.267Z,2.23
2018-06-20T19:57:14.994Z,2.90
2018-06-20T20:03:20.685Z,2.20
2018-06-20T20:09:26.531Z,2.60
2018-06-20T20:15:32.196Z,2.20
2018-06-20T20:21:37.987Z,2.20
2018-06-20T20:27:43.789Z,2.33
2018-06-20T20:33:49.787Z,2.47
2018-06-20T20:39:55.991Z,2.10
2018-06-20T20:46:01.697Z,3.20
2018-06-20T20:52:07.679Z,2.53
2018-06-20T20:58:13.305Z,2.50
2018-06-20T21:04:19.026Z,2.60
2018-06-20T21:10:24.848Z,2.50
2018-06-20T21:16:30.895Z,2.40
2018-06-20T21:22:36.620Z,3.20
2018-06-20T21:28:42.342Z,2.67
2018-06-20T21:34:48.118Z,2.80
2018-06-20T21:40:54.496Z,2.83
2018-06-20T21:47:00.252Z,3.10
2018-06-20T21:53:05.952Z,2.90
2018-06-20T21:59:11.693Z,3.27
2018-06-20T22:05:17.344Z,3.57
2018-06-20T22:11:23.943Z,3.50
2018-06-20T22:17:29.925Z,3.63
2018-06-20T22:23:35.656Z,3.40
2018-06-20T22:29:41.599Z,3.10
2018-06-20T22:35:47.384Z,3.73
2018-06-20T22:41:53.449Z,3.17
2018-06-20T22:47:59.136Z,3.40
2018-06-20T22:54:04.844Z,3.57
2018-06-20T23:00:10.654Z,3.27
2018-06-20T23:06:16.118Z,3.70
2018-06-20T23:12:22.057Z,4.10
2018-06-20T23:18:27.805Z,3.33
2018-06-20T23:24:33.482Z,3.93
2018-06-20T23:30:39.212Z,3.60
2018-06-20T23:36:44.987Z,4.10
2018-06-20T23:42:51.078Z,4.17
2018-06-20T23:48:57.024Z,3.60
2018-06-20T23:55:02.690Z,3.53
